Time;durP1;ratioP1;P1;durP2;ratioP2;P2;SDS_P1;SDS_P2;PMS_P1;PMS_P2;Temp;Humidity;BMP_temperature;BMP_pressure;BME280_temperature;BME280_humidity;BME280_pressure;Samples;Min_cycle;Max_cycle;Signal;HPM_P1;HPM_P2
2022/10/18 00:01:51;;;;;;;2.67;2.47;;;18.30;99.90;;;;;;5054957;28;20625;-78
2022/10/18 00:04:17;;;;;;;3.80;2.50;;;18.30;99.90;;;;;;5054832;28;20161;-78
2022/10/18 00:06:43;;;;;;;3.00;2.70;;;18.30;99.90;;;;;;5055158;28;20571;-79
2022/10/18 00:09:09;;;;;;;4.57;2.67;;;18.30;99.90;;;;;;5054945;28;20590;-78
2022/10/18 00:11:35;;;;;;;5.17;3.07;;;18.30;99.90;;;;;;5054717;28;20207;-78
2022/10/18 00:14:01;;;;;;;3.10;2.70;;;18.30;99.90;;;;;;5054606;28;20966;-78
2022/10/18 00:16:27;;;;;;;3.83;2.23;;;18.30;99.90;;;;;;5054814;28;20291;-77
2022/10/18 00:18:52;;;;;;;4.87;3.27;;;18.30;99.90;;;;;;5053548;28;20196;-78
2022/10/18 00:21:20;;;;;;;3.10;2.63;;;18.30;99.90;;;;;;5054647;28;20173;-77
2022/10/18 00:23:47;;;;;;;4.07;3.50;;;18.30;99.90;;;;;;5054396;28;20541;-77
2022/10/18 00:26:15;;;;;;;5.73;3.13;;;18.30;99.90;;;;;;5054625;28;20571;-77
2022/10/18 00:28:42;;;;;;;5.13;3.00;;;18.30;99.90;;;;;;5053469;28;20670;-78
2022/10/18 00:31:11;;;;;;;3.83;3.50;;;18.30;99.90;;;;;;5054281;28;20679;-78
2022/10/18 00:33:37;;;;;;;4.90;4.30;;;18.30;99.90;;;;;;5054786;28;20626;-78
2022/10/18 00:36:03;;;;;;;3.20;2.50;;;18.30;99.90;;;;;;5053227;28;20618;-78
2022/10/18 00:38:29;;;;;;;4.60;3.30;;;18.20;99.90;;;;;;5053341;28;20567;-78
2022/10/18 00:40:55;;;;;;;4.10;3.70;;;18.30;99.90;;;;;;5054362;28;20941;-78
2022/10/18 00:43:21;;;;;;;3.90;3.50;;;18.30;99.90;;;;;;5053718;28;20639;-78
2022/10/18 00:45:46;;;;;;;3.80;3.40;;;18.30;99.90;;;;;;5053492;28;20200;-78
2022/10/18 00:48:15;;;;;;;4.03;3.17;;;18.30;99.90;;;;;;5054449;28;20602;-79
2022/10/18 00:50:42;;;;;;;5.77;3.17;;;18.30;99.90;;;;;;5054404;28;20192;-79
2022/10/18 00:53:13;;;;;;;3.60;3.30;;;18.30;99.90;;;;;;5053741;28;20590;-79
2022/10/18 00:55:39;;;;;;;4.47;4.07;;;18.30;99.90;;;;;;5054135;28;21024;-78
2022/10/18 00:58:06;;;;;;;3.67;3.37;;;18.30;99.90;;;;;;5054057;28;21068;-78
2022/10/18 01:00:37;;;;;;;4.80;4.23;;;18.30;99.90;;;;;;5019258;28;20571;-78
2022/10/18 01:03:03;;;;;;;4.73;3.73;;;18.30;99.90;;;;;;5053507;28;20595;-78
2022/10/18 01:05:29;;;;;;;3.97;3.67;;;18.40;99.90;;;;;;5053831;28;20970;-78
2022/10/18 01:08:27;;;;;;;5.00;4.50;;;18.40;99.90;;;;;;5053880;28;20575;-78
2022/10/18 01:11:01;;;;;;;6.13;5.07;;;18.40;99.90;;;;;;5053848;28;20568;-78
2022/10/18 01:13:44;;;;;;;6.57;5.70;;;18.40;99.90;;;;;;5053304;28;20598;-78
2022/10/18 01:16:22;;;;;;;5.03;4.60;;;18.40;99.90;;;;;;5053649;28;20621;-78
2022/10/18 01:18:53;;;;;;;6.07;5.47;;;18.40;99.90;;;;;;5053491;28;20575;-78
2022/10/18 01:21:42;;;;;;;5.17;4.40;;;18.40;99.90;;;;;;5052214;28;20676;-78
2022/10/18 01:24:36;;;;;;;5.27;4.60;;;18.40;99.90;;;;;;5052044;28;20583;-78
2022/10/18 01:27:13;;;;;;;6.00;5.23;;;18.50;99.90;;;;;;5053494;28;20916;-78
2022/10/18 01:29:49;;;;;;;5.90;4.83;;;18.40;99.90;;;;;;5053501;28;20574;-78
2022/10/18 01:32:25;;;;;;;7.10;4.97;;;18.40;99.90;;;;;;5052915;28;21272;-78
2022/10/18 01:34:54;;;;;;;9.43;4.50;;;18.40;99.90;;;;;;5052283;28;20571;-78
2022/10/18 01:37:21;;;;;;;6.97;6.27;;;18.40;99.90;;;;;;5052055;28;20641;-78
2022/10/18 01:39:48;;;;;;;6.70;6.00;;;18.40;99.90;;;;;;5053328;28;20568;-78
2022/10/18 01:42:18;;;;;;;5.73;5.23;;;18.40;99.90;;;;;;5052679;28;20591;-78
2022/10/18 01:44:45;;;;;;;6.23;5.63;;;18.40;99.90;;;;;;5053255;28;20580;-78
2022/10/18 01:47:13;;;;;;;6.17;5.57;;;18.40;99.90;;;;;;5054670;28;20579;-79
2022/10/18 01:49:38;;;;;;;6.33;5.40;;;18.40;99.90;;;;;;5035451;28;20572;-79
2022/10/18 01:52:05;;;;;;;7.17;6.13;;;18.40;99.90;;;;;;5052488;28;20610;-78
2022/10/18 01:54:35;;;;;;;6.90;6.20;;;18.40;99.90;;;;;;5053089;28;20165;-78
2022/10/18 01:57:20;;;;;;;6.87;6.23;;;18.40;99.90;;;;;;5052973;28;20614;-78
2022/10/18 02:00:04;;;;;;;8.27;5.60;;;18.40;99.90;;;;;;5053079;28;20887;-78
2022/10/18 02:02:55;;;;;;;4.53;4.13;;;18.50;99.90;;;;;;5052554;28;20646;-78
2022/10/18 02:05:47;;;;;;;4.93;4.10;;;18.50;99.90;;;;;;5052950;28;20662;-79
2022/10/18 02:08:36;;;;;;;6.40;5.00;;;18.50;99.90;;;;;;5052842;28;20932;-78
2022/10/18 02:11:05;;;;;;;7.47;5.50;;;18.50;99.90;;;;;;5050783;28;20642;-79
2022/10/18 02:13:53;;;;;;;5.77;5.17;;;18.50;99.90;;;;;;5052191;28;20622;-78
2022/10/18 02:16:24;;;;;;;6.83;4.80;;;18.40;99.90;;;;;;5052665;28;20615;-78
2022/10/18 02:18:56;;;;;;;5.57;5.07;;;18.40;99.90;;;;;;5051281;28;20572;-78
2022/10/18 02:21:23;;;;;;;6.43;5.83;;;18.40;99.90;;;;;;5052512;28;21198;-79
2022/10/18 02:23:49;;;;;;;6.77;5.83;;;18.40;99.90;;;;;;5056652;28;20638;-79
2022/10/18 02:26:16;;;;;;;7.17;6.50;;;18.40;99.90;;;;;;5052600;28;20949;-79
2022/10/18 02:28:43;;;;;;;8.53;6.40;;;18.40;99.90;;;;;;5052406;28;20579;-78
2022/10/18 02:31:29;;;;;;;6.73;6.13;;;18.40;99.90;;;;;;5052225;28;20579;-79
2022/10/18 02:34:00;;;;;;;6.30;5.70;;;18.50;99.90;;;;;;5050070;28;20624;-79
2022/10/18 02:36:43;;;;;;;6.67;6.00;;;18.40;99.90;;;;;;5052230;28;20615;-79
2022/10/18 02:39:15;;;;;;;9.00;5.73;;;18.50;99.90;;;;;;5034311;28;20582;-79
2022/10/18 02:41:42;;;;;;;7.43;5.90;;;18.50;99.90;;;;;;5051969;28;20607;-79
2022/10/18 02:44:08;;;;;;;7.70;6.90;;;18.50;99.90;;;;;;5051802;28;20655;-78
2022/10/18 02:46:34;;;;;;;5.53;4.70;;;18.50;99.90;;;;;;5050739;28;20583;-79
2022/10/18 02:49:00;;;;;;;6.07;5.43;;;18.50;99.90;;;;;;5052151;28;21125;-79
2022/10/18 02:51:25;;;;;;;6.83;6.23;;;18.50;99.90;;;;;;5050695;28;20621;-79
2022/10/18 02:53:51;;;;;;;7.07;6.27;;;18.50;99.90;;;;;;5050478;28;20197;-78
2022/10/18 02:56:17;;;;;;;8.30;7.47;;;18.40;99.90;;;;;;5051782;28;20181;-78
2022/10/18 02:58:43;;;;;;;7.93;6.67;;;18.50;99.90;;;;;;5052092;28;20715;-78
2022/10/18 03:01:08;;;;;;;7.10;5.83;;;18.40;99.90;;;;;;5051145;28;20567;-79
2022/10/18 03:03:34;;;;;;;7.57;6.87;;;18.40;99.90;;;;;;5051659;28;20641;-80
2022/10/18 03:06:00;;;;;;;10.07;6.90;;;18.50;99.90;;;;;;5034163;28;20183;-78
2022/10/18 03:08:26;;;;;;;7.47;6.40;;;18.40;99.90;;;;;;5051530;28;20180;-76
2022/10/18 03:10:52;;;;;;;8.97;7.50;;;18.50;99.90;;;;;;5048767;28;21119;-78
2022/10/18 03:13:18;;;;;;;7.20;6.50;;;18.40;99.90;;;;;;5030490;28;20194;-78
2022/10/18 03:15:43;;;;;;;7.33;6.53;;;18.40;99.90;;;;;;5032209;28;20260;-78
2022/10/18 03:18:09;;;;;;;6.67;6.07;;;18.40;99.90;;;;;;5032371;28;20627;-78
2022/10/18 03:20:35;;;;;;;8.53;6.77;;;18.50;99.90;;;;;;5033018;28;20228;-78
2022/10/18 03:23:02;;;;;;;9.40;7.80;;;18.50;99.90;;;;;;5030547;28;20249;-78
2022/10/18 03:25:27;;;;;;;7.53;6.63;;;18.40;99.90;;;;;;5014153;28;20191;-78
2022/10/18 03:27:53;;;;;;;8.87;7.10;;;18.40;99.90;;;;;;5030569;28;21423;-78
2022/10/18 03:30:20;;;;;;;7.03;6.37;;;18.40;99.90;;;;;;5031667;28;20585;-79
2022/10/18 03:32:45;;;;;;;7.43;6.27;;;18.40;99.90;;;;;;5034074;28;21034;-79
2022/10/18 03:35:11;;;;;;;8.23;6.80;;;18.40;99.90;;;;;;5051256;28;20767;-79
2022/10/18 03:37:37;;;;;;;9.07;7.10;;;18.40;99.90;;;;;;5053690;28;20200;-78
2022/10/18 03:40:03;;;;;;;9.83;8.43;;;18.40;99.90;;;;;;5050381;28;20644;-78
2022/10/18 03:42:29;;;;;;;11.33;7.77;;;18.40;99.90;;;;;;5033155;28;20196;-80
2022/10/18 03:44:55;;;;;;;10.00;7.03;;;18.40;99.90;;;;;;5050155;28;20578;-79
2022/10/18 03:47:21;;;;;;;9.33;7.67;;;18.40;99.90;;;;;;5051382;28;20266;-79
2022/10/18 03:49:46;;;;;;;8.47;6.77;;;18.40;99.90;;;;;;5051304;28;20219;-80
2022/10/18 03:52:12;;;;;;;9.40;7.87;;;18.30;99.90;;;;;;5049755;28;20208;-80
2022/10/18 03:54:38;;;;;;;8.73;7.23;;;18.30;99.90;;;;;;5051457;28;20180;-80
2022/10/18 03:57:04;;;;;;;8.00;7.20;;;18.40;99.90;;;;;;5049799;28;20247;-80
2022/10/18 03:59:29;;;;;;;10.17;7.30;;;18.30;99.90;;;;;;5051244;28;20180;-80
2022/10/18 04:01:55;;;;;;;8.37;6.73;;;18.30;99.90;;;;;;5033988;28;20642;-79
2022/10/18 04:04:21;;;;;;;9.67;8.20;;;18.30;99.90;;;;;;5030979;28;20518;-79
2022/10/18 04:06:47;;;;;;;7.83;6.90;;;18.30;99.90;;;;;;5031147;28;20572;-80
2022/10/18 04:09:13;;;;;;;9.23;7.10;;;18.30;99.90;;;;;;5031140;28;20174;-80
2022/10/18 04:11:39;;;;;;;7.43;6.67;;;18.30;99.90;;;;;;5029556;28;20181;-80
2022/10/18 04:14:04;;;;;;;7.97;6.73;;;18.30;99.90;;;;;;5030828;28;20182;-80
2022/10/18 04:16:30;;;;;;;8.70;6.93;;;18.30;99.90;;;;;;5029681;28;20697;-79
2022/10/18 04:18:56;;;;;;;9.40;7.93;;;18.30;99.90;;;;;;5029695;28;20588;-79
2022/10/18 04:21:22;;;;;;;8.90;7.47;;;18.30;99.90;;;;;;5031161;28;20166;-79
2022/10/18 04:23:49;;;;;;;8.03;7.27;;;18.30;99.90;;;;;;5029357;28;21060;-78
2022/10/18 04:26:15;;;;;;;9.30;8.40;;;18.30;99.90;;;;;;5030711;28;20638;-79
2022/10/18 04:28:42;;;;;;;8.37;7.30;;;18.20;99.90;;;;;;5030940;28;20926;-78
2022/10/18 04:31:09;;;;;;;8.03;7.23;;;18.20;99.90;;;;;;5029487;28;20620;-78
2022/10/18 04:33:35;;;;;;;8.43;7.63;;;18.20;99.90;;;;;;5030549;28;20778;-79
2022/10/18 04:36:01;;;;;;;7.70;7.00;;;18.20;99.90;;;;;;5032936;28;21227;-79
2022/10/18 04:38:27;;;;;;;7.80;7.00;;;18.30;99.90;;;;;;5033090;28;20580;-78
2022/10/18 04:40:53;;;;;;;8.17;6.80;;;18.30;99.90;;;;;;5016627;28;20174;-78
2022/10/18 04:43:18;;;;;;;7.20;6.47;;;18.30;99.90;;;;;;5032555;28;20961;-79
2022/10/18 04:45:45;;;;;;;8.03;7.23;;;18.30;99.90;;;;;;5016698;28;20166;-79
2022/10/18 04:48:11;;;;;;;9.03;8.10;;;18.30;99.90;;;;;;5034201;28;20181;-79
2022/10/18 04:50:37;;;;;;;8.87;6.27;;;18.30;99.90;;;;;;5016467;28;20599;-79
2022/10/18 04:53:13;;;;;;;6.23;5.63;;;18.30;99.90;;;;;;5032415;28;20197;-79
2022/10/18 04:55:42;;;;;;;6.53;5.93;;;18.40;99.90;;;;;;5034264;28;20642;-78
2022/10/18 04:58:07;;;;;;;7.37;6.23;;;18.40;99.90;;;;;;5032677;28;20711;-79
2022/10/18 05:00:33;;;;;;;6.63;5.97;;;18.40;99.90;;;;;;5033920;28;20626;-79
2022/10/18 05:02:59;;;;;;;6.30;5.70;;;18.40;99.90;;;;;;5032245;28;20595;-79
2022/10/18 05:05:25;;;;;;;6.23;5.57;;;18.40;99.90;;;;;;5045004;28;20195;-78
2022/10/18 05:07:51;;;;;;;7.97;5.47;;;18.50;99.90;;;;;;5052619;28;20169;-79
2022/10/18 05:10:17;;;;;;;6.30;5.57;;;18.50;99.90;;;;;;5053639;28;20912;-78
2022/10/18 05:12:43;;;;;;;5.80;5.20;;;18.50;99.90;;;;;;5053362;28;20180;-79
2022/10/18 05:15:09;;;;;;;5.93;5.33;;;18.50;99.90;;;;;;5053647;28;20165;-79
2022/10/18 05:17:35;;;;;;;7.30;5.50;;;18.50;99.90;;;;;;5053417;28;20246;-78
2022/10/18 05:20:01;;;;;;;6.47;5.67;;;18.50;99.90;;;;;;5052247;28;20563;-78
2022/10/18 05:22:26;;;;;;;6.43;5.83;;;18.50;99.90;;;;;;5052837;28;20260;-79
2022/10/18 05:24:52;;;;;;;7.17;6.20;;;18.50;99.90;;;;;;5035701;28;20655;-79
2022/10/18 05:27:18;;;;;;;6.67;5.93;;;18.50;99.90;;;;;;5052073;28;20200;-78
2022/10/18 05:29:44;;;;;;;6.53;5.53;;;18.50;99.90;;;;;;5053264;28;20576;-78
2022/10/18 05:32:10;;;;;;;7.23;6.53;;;18.50;99.90;;;;;;5051662;28;20645;-78
2022/10/18 05:34:36;;;;;;;8.93;7.57;;;18.60;99.90;;;;;;5051883;28;20579;-78
2022/10/18 05:37:02;;;;;;;7.50;6.30;;;18.60;99.90;;;;;;5051821;28;20272;-78
2022/10/18 05:39:28;;;;;;;9.83;7.90;;;18.60;99.90;;;;;;5053113;28;20246;-78
2022/10/18 05:41:53;;;;;;;9.57;8.47;;;18.60;99.90;;;;;;5051456;28;21150;-79
2022/10/18 05:44:19;;;;;;;11.30;7.90;;;18.60;99.90;;;;;;5052709;28;20165;-79
2022/10/18 05:46:45;;;;;;;8.30;7.17;;;18.60;99.90;;;;;;5050677;28;20521;-79
2022/10/18 05:49:14;;;;;;;11.73;9.80;;;18.60;99.90;;;;;;5053090;28;20177;-79
2022/10/18 05:51:40;;;;;;;11.07;9.60;;;18.60;99.90;;;;;;5051501;28;20204;-80
2022/10/18 05:54:06;;;;;;;13.53;9.97;;;18.60;99.90;;;;;;5034702;28;20611;-80
2022/10/18 05:56:32;;;;;;;10.50;9.40;;;18.60;99.90;;;;;;5052718;28;20284;-79
2022/10/18 05:58:57;;;;;;;12.37;10.20;;;18.60;99.90;;;;;;5050596;28;20167;-80
2022/10/18 06:01:23;;;;;;;10.67;8.93;;;18.60;99.90;;;;;;5038183;28;20189;-79
2022/10/18 06:03:49;;;;;;;10.40;9.30;;;18.60;99.90;;;;;;5030856;28;20185;-79
2022/10/18 06:06:15;;;;;;;9.97;8.60;;;18.60;99.90;;;;;;5032839;28;20192;-79
2022/10/18 06:08:42;;;;;;;9.07;7.83;;;18.60;99.90;;;;;;5035015;28;20592;-79
2022/10/18 06:11:11;;;;;;;12.30;9.80;;;18.60;99.90;;;;;;5031359;28;20588;-79
2022/10/18 06:13:42;;;;;;;12.53;8.63;;;18.60;99.90;;;;;;5032452;28;20623;-80
2022/10/18 06:16:08;;;;;;;10.30;9.00;;;18.60;99.90;;;;;;5031290;28;20576;-79
2022/10/18 06:18:34;;;;;;;9.70;8.00;;;18.60;99.90;;;;;;5032833;28;20588;-80
2022/10/18 06:20:59;;;;;;;8.53;7.50;;;18.60;99.90;;;;;;5033644;28;20577;-79
2022/10/18 06:23:26;;;;;;;9.20;8.27;;;18.60;99.90;;;;;;5033113;28;20676;-80
2022/10/18 06:25:52;;;;;;;10.40;9.30;;;18.60;99.90;;;;;;5034187;28;20170;-80
2022/10/18 06:28:18;;;;;;;11.03;9.43;;;18.60;99.90;;;;;;5032311;28;20627;-80
2022/10/18 06:30:44;;;;;;;10.50;8.73;;;18.60;99.90;;;;;;5034049;28;20592;-80
2022/10/18 06:33:10;;;;;;;13.30;10.00;;;18.60;99.90;;;;;;5016403;28;20209;-80
2022/10/18 06:35:36;;;;;;;11.47;9.70;;;18.60;99.90;;;;;;5038990;28;21135;-81
2022/10/18 06:38:02;;;;;;;10.17;9.17;;;18.60;99.90;;;;;;5031244;28;21206;-80
2022/10/18 06:40:29;;;;;;;9.53;8.43;;;18.60;99.90;;;;;;5031168;28;20216;-80
2022/10/18 06:42:55;;;;;;;11.60;10.07;;;18.60;99.90;;;;;;5032923;28;20584;-80
2022/10/18 06:45:21;;;;;;;10.00;9.00;;;18.60;99.90;;;;;;5032392;28;20579;-81
2022/10/18 06:47:47;;;;;;;12.13;10.00;;;18.60;99.90;;;;;;5033702;28;20599;-81
2022/10/18 06:50:13;;;;;;;16.20;10.10;;;18.70;99.90;;;;;;5051833;28;20288;-79
2022/10/18 06:52:40;;;;;;;12.60;11.30;;;18.70;99.90;;;;;;5033516;28;20603;-80
2022/10/18 06:55:07;;;;;;;11.77;9.17;;;18.70;99.90;;;;;;5051884;28;20177;-80
2022/10/18 06:57:32;;;;;;;11.87;9.70;;;18.70;99.90;;;;;;5051224;28;20655;-80
2022/10/18 06:59:58;;;;;;;11.60;9.23;;;18.70;99.90;;;;;;5045157;28;20583;-79
2022/10/18 07:02:24;;;;;;;11.07;9.17;;;18.70;99.90;;;;;;5030328;28;20201;-80
2022/10/18 07:04:50;;;;;;;9.80;8.00;;;18.70;99.90;;;;;;5030450;28;20177;-81
2022/10/18 07:07:15;;;;;;;9.67;8.30;;;18.70;99.90;;;;;;5030250;28;20526;-81
2022/10/18 07:09:41;;;;;;;10.30;8.00;;;18.70;99.90;;;;;;5014144;28;20212;-80
2022/10/18 07:12:07;;;;;;;8.00;7.20;;;18.70;99.90;;;;;;5013720;28;20331;-79
2022/10/18 07:14:32;;;;;;;8.13;7.33;;;18.70;99.90;;;;;;5032005;28;20182;-80
2022/10/18 07:16:59;;;;;;;7.23;6.53;;;18.70;99.90;;;;;;5031484;28;20595;-80
2022/10/18 07:19:25;;;;;;;9.73;8.43;;;18.70;99.90;;;;;;5031799;28;20181;-80
2022/10/18 07:21:50;;;;;;;7.40;6.50;;;18.70;99.90;;;;;;5037823;28;20569;-81
2022/10/18 07:24:16;;;;;;;6.83;6.10;;;18.70;99.90;;;;;;5034961;28;20569;-81
2022/10/18 07:26:42;;;;;;;9.67;7.50;;;18.70;99.90;;;;;;5034261;28;20170;-81
2022/10/18 07:29:10;;;;;;;12.10;8.73;;;18.70;99.90;;;;;;5031782;28;20191;-81
2022/10/18 07:31:37;;;;;;;11.83;9.87;;;18.70;99.90;;;;;;5032762;28;20204;-81
2022/10/18 07:34:04;;;;;;;13.10;9.63;;;18.70;99.90;;;;;;5033921;28;20631;-82
2022/10/18 07:36:30;;;;;;;13.87;10.90;;;18.70;99.90;;;;;;5033496;28;20624;-82
2022/10/18 07:38:56;;;;;;;12.70;9.30;;;18.70;99.90;;;;;;5032819;28;20617;-82
2022/10/18 07:41:22;;;;;;;15.93;12.63;;;18.70;99.90;;;;;;5034129;28;20173;-81
2022/10/18 07:43:49;;;;;;;16.20;12.47;;;18.70;99.90;;;;;;5031650;28;20589;-81
2022/10/18 07:46:16;;;;;;;15.83;12.60;;;18.70;99.90;;;;;;5033057;28;20565;-81
2022/10/18 07:48:42;;;;;;;13.10;10.83;;;18.70;99.90;;;;;;5033543;28;20573;-81
2022/10/18 07:51:08;;;;;;;18.53;12.90;;;18.70;99.90;;;;;;5033303;28;20575;-81
2022/10/18 07:53:34;;;;;;;15.80;11.10;;;18.70;99.90;;;;;;5042466;28;20639;-82
2022/10/18 07:56:05;;;;;;;20.13;14.00;;;18.70;99.90;;;;;;5053313;28;20925;-81
2022/10/18 07:58:32;;;;;;;16.50;13.13;;;18.70;99.90;;;;;;5058767;28;20671;-81
2022/10/18 08:01:02;;;;;;;18.93;14.90;;;18.70;99.90;;;;;;5052305;28;20560;-81
2022/10/18 08:03:28;;;;;;;28.10;15.10;;;18.70;99.90;;;;;;5052963;28;20596;-80
2022/10/18 08:05:54;;;;;;;20.53;14.47;;;18.70;99.90;;;;;;5051902;28;20563;-80
2022/10/18 08:08:23;;;;;;;21.10;14.33;;;18.70;99.90;;;;;;5049974;28;20184;-80
2022/10/18 08:10:49;;;;;;;23.43;14.70;;;18.70;99.90;;;;;;5056239;28;20570;-80
2022/10/18 08:13:15;;;;;;;23.20;14.57;;;18.70;99.90;;;;;;5039199;28;20627;-81
2022/10/18 08:15:41;;;;;;;17.20;12.60;;;18.70;99.90;;;;;;5057014;28;20571;-81
2022/10/18 08:18:08;;;;;;;20.93;13.43;;;18.70;99.90;;;;;;5055899;28;20644;-82
2022/10/18 08:20:35;;;;;;;25.37;15.60;;;18.70;99.90;;;;;;5061530;28;20571;-82
2022/10/18 08:23:02;;;;;;;25.30;13.83;;;18.70;99.90;;;;;;5057889;28;20626;-81
2022/10/18 08:25:28;;;;;;;25.07;14.07;;;18.70;99.90;;;;;;5056835;28;20925;-81
2022/10/18 08:27:55;;;;;;;23.13;15.10;;;18.70;99.90;;;;;;5051702;28;20591;-81
2022/10/18 08:30:22;;;;;;;23.37;14.60;;;18.70;99.90;;;;;;5057423;28;20580;-81
2022/10/18 08:32:48;;;;;;;21.70;15.77;;;18.80;99.90;;;;;;5054642;28;20649;-80
2022/10/18 08:35:14;;;;;;;25.90;15.87;;;18.80;99.90;;;;;;5054836;28;20594;-80
2022/10/18 08:37:39;;;;;;;25.40;15.87;;;18.80;99.90;;;;;;5054383;28;20649;-80
2022/10/18 08:40:06;;;;;;;22.63;15.07;;;18.90;99.90;;;;;;5032371;28;20685;-80
2022/10/18 08:42:56;;;;;;;29.37;17.77;;;18.90;99.90;;;;;;5033525;28;20201;-78
2022/10/18 08:45:23;;;;;;;23.37;13.73;;;18.90;99.90;;;;;;5034215;28;20671;-79
2022/10/18 08:47:52;;;;;;;25.47;15.50;;;18.90;99.90;;;;;;5033537;28;21191;-79
2022/10/18 08:50:45;;;;;;;24.60;16.20;;;19.00;99.90;;;;;;5034694;28;21012;-80
2022/10/18 08:53:19;;;;;;;23.30;14.30;;;19.00;99.90;;;;;;5013754;28;20965;-79
2022/10/18 08:55:51;;;;;;;25.93;14.70;;;19.10;99.90;;;;;;5034059;28;20579;-79
2022/10/18 08:58:23;;;;;;;26.47;16.70;;;19.10;99.90;;;;;;5034170;28;20957;-80
2022/10/18 09:01:10;;;;;;;27.93;15.23;;;19.00;99.90;;;;;;5035242;28;20573;-79
2022/10/18 09:04:01;;;;;;;24.87;15.00;;;19.10;99.90;;;;;;5033699;28;20596;-79
2022/10/18 09:06:38;;;;;;;30.67;17.20;;;19.10;99.90;;;;;;5033870;28;20622;-78
2022/10/18 09:09:21;;;;;;;30.80;16.80;;;19.10;99.90;;;;;;5033827;28;20568;-79
2022/10/18 09:11:57;;;;;;;30.40;17.10;;;19.00;99.90;;;;;;5038937;28;20576;-78
2022/10/18 09:14:32;;;;;;;26.87;17.40;;;19.10;99.90;;;;;;5032619;28;20588;-79
2022/10/18 09:17:11;;;;;;;34.13;19.30;;;19.10;99.90;;;;;;5033824;28;20978;-79
2022/10/18 09:19:59;;;;;;;26.83;17.33;;;19.00;99.90;;;;;;5032351;28;20612;-79
2022/10/18 09:22:50;;;;;;;25.70;17.07;;;19.00;99.90;;;;;;5033325;28;20588;-79
2022/10/18 09:25:31;;;;;;;28.90;18.17;;;19.10;99.90;;;;;;5032337;28;20568;-79
2022/10/18 09:28:18;;;;;;;28.70;17.10;;;19.00;99.90;;;;;;5032233;28;20660;-79
2022/10/18 09:30:51;;;;;;;24.77;17.67;;;19.00;99.90;;;;;;5032201;28;20568;-79
2022/10/18 09:33:42;;;;;;;25.50;17.90;;;19.10;99.90;;;;;;5032863;28;20612;-78
2022/10/18 09:36:14;;;;;;;25.53;17.00;;;19.10;99.90;;;;;;5033304;28;20561;-79
2022/10/18 09:38:45;;;;;;;25.40;16.83;;;19.10;99.90;;;;;;5033361;28;20573;-79
2022/10/18 09:41:20;;;;;;;26.07;17.33;;;19.20;99.90;;;;;;5031886;28;20572;-79
2022/10/18 09:43:51;;;;;;;29.50;17.93;;;19.30;99.90;;;;;;5032763;28;20695;-78
2022/10/18 09:46:20;;;;;;;29.87;18.40;;;19.30;99.90;;;;;;5033162;28;21242;-79
2022/10/18 09:48:56;;;;;;;28.37;19.17;;;19.40;99.90;;;;;;5036749;28;20575;-79
2022/10/18 09:51:27;;;;;;;32.13;19.43;;;19.40;99.90;;;;;;5032968;28;20921;-80
2022/10/18 09:54:20;;;;;;;31.87;20.43;;;19.50;99.90;;;;;;5032716;28;20608;-79
2022/10/18 09:57:08;;;;;;;28.83;19.07;;;19.60;99.90;;;;;;5032830;28;21610;-77
2022/10/18 09:59:45;;;;;;;29.90;19.50;;;19.60;99.90;;;;;;5032844;28;20573;-77
2022/10/18 10:02:14;;;;;;;34.60;19.17;;;19.70;99.90;;;;;;5031993;28;20606;-77
2022/10/18 10:04:40;;;;;;;26.50;16.50;;;19.80;99.90;;;;;;5032602;28;20964;-78
2022/10/18 10:07:11;;;;;;;28.50;17.63;;;19.90;99.90;;;;;;5032702;28;20643;-78
2022/10/18 10:09:47;;;;;;;27.33;16.30;;;19.90;99.90;;;;;;5031400;28;20197;-79
2022/10/18 10:12:26;;;;;;;27.10;18.23;;;20.00;99.90;;;;;;5030976;28;20738;-79
2022/10/18 10:14:52;;;;;;;31.70;18.23;;;20.00;99.90;;;;;;5031059;28;20599;-79
2022/10/18 10:17:25;;;;;;;32.17;19.60;;;20.00;99.90;;;;;;5032002;28;20628;-79
2022/10/18 10:20:02;;;;;;;28.93;18.73;;;20.00;99.90;;;;;;5031243;28;20248;-79
2022/10/18 10:22:34;;;;;;;26.87;18.93;;;20.00;99.90;;;;;;5031861;28;21254;-79
2022/10/18 10:25:00;;;;;;;25.87;18.17;;;20.00;99.90;;;;;;5033279;28;20579;-80
2022/10/18 10:27:39;;;;;;;26.30;17.47;;;20.10;99.90;;;;;;5032908;28;20667;-79
2022/10/18 10:30:25;;;;;;;24.30;17.80;;;20.10;99.90;;;;;;5030708;28;20630;-79
2022/10/18 10:32:53;;;;;;;21.40;15.93;;;20.10;99.90;;;;;;5020173;28;20722;-78
2022/10/18 10:35:21;;;;;;;23.87;17.27;;;20.20;99.90;;;;;;5030052;28;20600;-78
2022/10/18 10:37:51;;;;;;;28.97;18.10;;;20.20;99.90;;;;;;5031985;28;20667;-79
2022/10/18 10:40:19;;;;;;;23.60;18.50;;;20.20;99.90;;;;;;5031496;28;21018;-78
2022/10/18 10:43:05;;;;;;;21.63;16.17;;;20.10;99.90;;;;;;5031455;28;20627;-77
2022/10/18 10:45:34;;;;;;;25.73;18.77;;;20.10;99.90;;;;;;5031694;28;20591;-77
2022/10/18 10:48:15;;;;;;;26.63;17.93;;;20.10;99.90;;;;;;5030841;28;20991;-77
2022/10/18 10:51:11;;;;;;;28.30;18.03;;;20.10;99.90;;;;;;5035365;28;21170;-78
2022/10/18 10:54:02;;;;;;;29.13;17.70;;;20.10;99.90;;;;;;5042140;28;20676;-78
2022/10/18 10:56:31;;;;;;;30.77;18.87;;;20.10;99.90;;;;;;5047203;28;20671;-79
2022/10/18 10:59:30;;;;;;;35.47;20.90;;;20.20;99.90;;;;;;5014082;28;20585;-79
2022/10/18 11:02:21;;;;;;;26.87;18.67;;;20.20;99.90;;;;;;4990659;28;20601;-79
2022/10/18 11:04:49;;;;;;;31.80;20.50;;;20.30;99.90;;;;;;5022154;28;20599;-78
2022/10/18 11:07:24;;;;;;;28.30;20.57;;;20.40;99.90;;;;;;5029088;28;21168;-79
2022/10/18 11:09:50;;;;;;;28.53;20.00;;;20.50;99.90;;;;;;5027375;28;20591;-79
2022/10/18 11:12:32;;;;;;;30.77;19.30;;;20.50;99.90;;;;;;5029685;28;20714;-78
2022/10/18 11:15:12;;;;;;;21.30;15.83;;;20.50;99.90;;;;;;5031683;28;20955;-79
2022/10/18 11:17:38;;;;;;;24.93;17.17;;;20.70;99.90;;;;;;5031612;28;20670;-79
2022/10/18 11:20:08;;;;;;;22.40;16.53;;;21.00;99.90;;;;;;5031595;28;20572;-78
2022/10/18 11:23:00;;;;;;;20.27;16.93;;;21.30;99.90;;;;;;5032391;28;20611;-79
2022/10/18 11:26:05;;;;;;;22.17;17.23;;;21.60;99.90;;;;;;5031405;28;20576;-79
2022/10/18 11:29:09;;;;;;;27.47;17.60;;;21.90;99.90;;;;;;5013595;28;20581;-79
2022/10/18 11:32:12;;;;;;;20.20;16.87;;;22.20;99.90;;;;;;5015017;28;20601;-79
2022/10/18 11:35:01;;;;;;;16.10;14.40;;;22.40;99.90;;;;;;5004053;28;21002;-79
2022/10/18 11:37:57;;;;;;;15.70;14.00;;;22.40;99.90;;;;;;5031493;28;20677;-79
2022/10/18 11:40:41;;;;;;;16.63;13.70;;;22.30;99.90;;;;;;5015039;28;20995;-78
2022/10/18 11:43:31;;;;;;;17.03;15.27;;;22.30;99.90;;;;;;5031888;28;20628;-79
2022/10/18 11:46:10;;;;;;;19.60;16.20;;;22.10;99.90;;;;;;5042009;28;20564;-78
2022/10/18 11:49:13;;;;;;;21.60;18.67;;;22.10;99.90;;;;;;5041309;28;20674;-77
2022/10/18 11:51:48;;;;;;;19.60;17.60;;;22.20;99.90;;;;;;5021330;28;20630;-78
2022/10/18 11:54:35;;;;;;;23.60;19.23;;;22.30;99.90;;;;;;5044315;28;20608;-78
2022/10/18 11:57:17;;;;;;;19.93;17.67;;;22.50;99.90;;;;;;5047495;28;20628;-78
2022/10/18 11:59:59;;;;;;;22.50;18.90;;;22.70;99.90;;;;;;5037479;28;20588;-78
2022/10/18 12:02:59;;;;;;;25.30;18.73;;;22.90;99.90;;;;;;5038388;28;21000;-79
2022/10/18 12:05:26;;;;;;;21.47;19.23;;;23.00;99.90;;;;;;5037294;28;20576;-78
2022/10/18 12:08:03;;;;;;;22.60;20.30;;;23.20;99.90;;;;;;5020400;28;21107;-79
2022/10/18 12:10:31;;;;;;;24.07;21.03;;;23.30;99.90;;;;;;5034483;28;20587;-79
2022/10/18 12:13:04;;;;;;;22.33;19.93;;;23.30;99.90;;;;;;5034625;28;20604;-79
2022/10/18 12:15:35;;;;;;;23.27;20.80;;;23.30;99.90;;;;;;5034788;28;20670;-79
2022/10/18 12:18:06;;;;;;;23.50;20.87;;;23.20;99.90;;;;;;5035047;28;20616;-79
2022/10/18 12:20:41;;;;;;;24.00;21.60;;;23.10;99.90;;;;;;5033256;28;20586;-79
2022/10/18 12:23:28;;;;;;;24.07;21.57;;;23.00;99.90;;;;;;5034329;28;20592;-78
2022/10/18 12:25:59;;;;;;;24.43;20.90;;;22.90;99.90;;;;;;5033106;28;20568;-79
2022/10/18 12:28:46;;;;;;;29.30;25.50;;;22.90;99.90;;;;;;5033820;28;20615;-78
2022/10/18 12:31:23;;;;;;;33.73;26.80;;;22.80;99.90;;;;;;5033861;28;20580;-78
2022/10/18 12:33:56;;;;;;;27.80;23.73;;;22.80;99.90;;;;;;5033716;28;21236;-78
2022/10/18 12:36:44;;;;;;;32.80;27.27;;;22.80;99.90;;;;;;5034266;28;20556;-78
2022/10/18 12:39:27;;;;;;;36.47;30.20;;;22.80;99.90;;;;;;5041499;28;20934;-77
2022/10/18 12:41:55;;;;;;;31.50;26.80;;;22.70;99.90;;;;;;5037719;28;20586;-78
2022/10/18 12:44:32;;;;;;;33.10;28.33;;;22.70;99.90;;;;;;5040848;28;20595;-79
2022/10/18 12:47:00;;;;;;;31.20;27.20;;;22.60;99.90;;;;;;5041070;28;20990;-78
2022/10/18 12:49:34;;;;;;;33.30;28.30;;;22.60;99.90;;;;;;5041674;28;20650;-78
2022/10/18 12:52:23;;;;;;;34.10;28.87;;;22.60;99.90;;;;;;5028966;28;20662;-77
2022/10/18 12:55:17;;;;;;;33.60;27.70;;;22.40;99.90;;;;;;5029668;28;20572;-78
2022/10/18 12:57:51;;;;;;;34.20;26.83;;;22.40;99.90;;;;;;5033785;28;20619;-79
2022/10/18 13:00:43;;;;;;;36.30;27.90;;;22.40;99.90;;;;;;5029728;28;20584;-78